sensor_id;sensor_type;location;lat;lon;timestamp;temperature;humidity
37560;DHT22;23398;50.928;7.084;2023-12-20T00:00:58;12.10;94.40
37560;DHT22;23398;50.928;7.084;2023-12-20T00:03:23;12.10;94.50
37560;DHT22;23398;50.928;7.084;2023-12-20T00:05:49;12.20;94.50
37560;DHT22;23398;50.928;7.084;2023-12-20T00:08:15;12.20;94.50
37560;DHT22;23398;50.928;7.084;2023-12-20T00:10:41;12.20;94.50
37560;DHT22;23398;50.928;7.084;2023-12-20T00:13:07;12.20;94.50
37560;DHT22;23398;50.928;7.084;2023-12-20T00:15:33;12.20;94.50
37560;DHT22;23398;50.928;7.084;2023-12-20T00:17:59;12.20;94.50
37560;DHT22;23398;50.928;7.084;2023-12-20T00:20:24;12.20;94.40
37560;DHT22;23398;50.928;7.084;2023-12-20T00:22:50;12.20;94.40
37560;DHT22;23398;50.928;7.084;2023-12-20T00:25:16;12.20;94.40
37560;DHT22;23398;50.928;7.084;2023-12-20T00:27:41;12.20;94.40
37560;DHT22;23398;50.928;7.084;2023-12-20T00:30:08;12.20;94.40
37560;DHT22;23398;50.928;7.084;2023-12-20T00:32:35;12.20;94.50
37560;DHT22;23398;50.928;7.084;2023-12-20T00:35:00;12.20;94.50
37560;DHT22;23398;50.928;7.084;2023-12-20T00:37:26;12.20;94.50
37560;DHT22;23398;50.928;7.084;2023-12-20T00:39:52;12.20;94.50
37560;DHT22;23398;50.928;7.084;2023-12-20T00:42:17;12.20;94.50
37560;DHT22;23398;50.928;7.084;2023-12-20T00:44:43;12.10;94.50
37560;DHT22;23398;50.928;7.084;2023-12-20T00:47:08;12.10;94.50
37560;DHT22;23398;50.928;7.084;2023-12-20T00:49:34;12.20;94.50
37560;DHT22;23398;50.928;7.084;2023-12-20T00:51:59;12.10;94.40
37560;DHT22;23398;50.928;7.084;2023-12-20T00:54:25;12.10;94.20
37560;DHT22;23398;50.928;7.084;2023-12-20T00:56:51;12.10;94.00
37560;DHT22;23398;50.928;7.084;2023-12-20T00:59:16;12.10;93.80
37560;DHT22;23398;50.928;7.084;2023-12-20T01:01:43;12.10;93.60
37560;DHT22;23398;50.928;7.084;2023-12-20T01:04:09;12.10;93.40
37560;DHT22;23398;50.928;7.084;2023-12-20T01:06:34;12.00;93.30
37560;DHT22;23398;50.928;7.084;2023-12-20T01:09:00;12.00;93.20
37560;DHT22;23398;50.928;7.084;2023-12-20T01:11:25;11.90;93.20
37560;DHT22;23398;50.928;7.084;2023-12-20T01:13:51;11.90;93.30
37560;DHT22;23398;50.928;7.084;2023-12-20T01:16:16;11.90;93.30
37560;DHT22;23398;50.928;7.084;2023-12-20T01:18:42;11.90;93.20
37560;DHT22;23398;50.928;7.084;2023-12-20T01:21:07;11.80;93.00
37560;DHT22;23398;50.928;7.084;2023-12-20T01:23:33;11.80;92.60
37560;DHT22;23398;50.928;7.084;2023-12-20T01:25:59;11.80;92.40
37560;DHT22;23398;50.928;7.084;2023-12-20T01:28:28;11.70;92.20
37560;DHT22;23398;50.928;7.084;2023-12-20T01:30:53;11.70;91.90
37560;DHT22;23398;50.928;7.084;2023-12-20T01:33:19;11.60;91.60
37560;DHT22;23398;50.928;7.084;2023-12-20T01:35:44;11.60;91.40
37560;DHT22;23398;50.928;7.084;2023-12-20T01:38:10;11.50;91.40
37560;DHT22;23398;50.928;7.084;2023-12-20T01:40:36;11.40;91.60
37560;DHT22;23398;50.928;7.084;2023-12-20T01:43:06;11.30;91.90
37560;DHT22;23398;50.928;7.084;2023-12-20T01:45:32;11.30;92.20
37560;DHT22;23398;50.928;7.084;2023-12-20T01:47:58;11.30;92.60
37560;DHT22;23398;50.928;7.084;2023-12-20T01:50:24;11.20;93.00
37560;DHT22;23398;50.928;7.084;2023-12-20T01:52:50;11.10;93.20
37560;DHT22;23398;50.928;7.084;2023-12-20T01:55:18;11.20;93.60
37560;DHT22;23398;50.928;7.084;2023-12-20T01:57:44;11.10;93.70
37560;DHT22;23398;50.928;7.084;2023-12-20T02:00:11;11.10;93.80
37560;DHT22;23398;50.928;7.084;2023-12-20T02:02:39;11.20;94.00
37560;DHT22;23398;50.928;7.084;2023-12-20T02:05:06;11.10;94.10
37560;DHT22;23398;50.928;7.084;2023-12-20T02:07:31;11.20;94.10
37560;DHT22;23398;50.928;7.084;2023-12-20T02:09:57;11.20;94.10
37560;DHT22;23398;50.928;7.084;2023-12-20T02:12:23;11.20;93.90
37560;DHT22;23398;50.928;7.084;2023-12-20T02:14:49;11.20;93.60
37560;DHT22;23398;50.928;7.084;2023-12-20T02:17:15;11.20;93.40
37560;DHT22;23398;50.928;7.084;2023-12-20T02:19:41;11.30;93.30
37560;DHT22;23398;50.928;7.084;2023-12-20T02:22:15;11.30;93.10
37560;DHT22;23398;50.928;7.084;2023-12-20T02:24:41;11.30;92.80
37560;DHT22;23398;50.928;7.084;2023-12-20T02:27:07;11.30;92.40
37560;DHT22;23398;50.928;7.084;2023-12-20T02:29:34;11.30;91.90
37560;DHT22;23398;50.928;7.084;2023-12-20T02:32:00;11.20;91.40
37560;DHT22;23398;50.928;7.084;2023-12-20T02:34:25;11.20;91.00
37560;DHT22;23398;50.928;7.084;2023-12-20T02:36:51;11.20;90.70
37560;DHT22;23398;50.928;7.084;2023-12-20T02:39:17;11.20;90.30
37560;DHT22;23398;50.928;7.084;2023-12-20T02:41:43;11.10;89.70
37560;DHT22;23398;50.928;7.084;2023-12-20T02:44:09;11.00;88.90
37560;DHT22;23398;50.928;7.084;2023-12-20T02:46:34;10.90;88.40
37560;DHT22;23398;50.928;7.084;2023-12-20T02:49:00;10.80;88.00
37560;DHT22;23398;50.928;7.084;2023-12-20T02:51:25;10.70;87.80
37560;DHT22;23398;50.928;7.084;2023-12-20T02:53:51;10.70;88.20
37560;DHT22;23398;50.928;7.084;2023-12-20T02:56:17;10.60;88.70
37560;DHT22;23398;50.928;7.084;2023-12-20T02:58:42;10.50;89.50
37560;DHT22;23398;50.928;7.084;2023-12-20T03:01:08;10.40;90.20
37560;DHT22;23398;50.928;7.084;2023-12-20T03:03:33;10.30;90.60
37560;DHT22;23398;50.928;7.084;2023-12-20T03:06:00;10.30;91.00
37560;DHT22;23398;50.928;7.084;2023-12-20T03:08:25;10.30;91.30
37560;DHT22;23398;50.928;7.084;2023-12-20T03:10:51;10.30;91.50
37560;DHT22;23398;50.928;7.084;2023-12-20T03:13:16;10.20;91.60
37560;DHT22;23398;50.928;7.084;2023-12-20T03:15:42;10.20;91.90
37560;DHT22;23398;50.928;7.084;2023-12-20T03:18:07;10.20;92.00
37560;DHT22;23398;50.928;7.084;2023-12-20T03:20:33;10.20;92.00
37560;DHT22;23398;50.928;7.084;2023-12-20T03:23:00;10.30;92.10
37560;DHT22;23398;50.928;7.084;2023-12-20T03:25:26;10.30;92.10
37560;DHT22;23398;50.928;7.084;2023-12-20T03:27:52;10.30;92.20
37560;DHT22;23398;50.928;7.084;2023-12-20T03:30:18;10.30;92.20
37560;DHT22;23398;50.928;7.084;2023-12-20T03:32:44;10.30;92.20
37560;DHT22;23398;50.928;7.084;2023-12-20T03:35:09;10.40;92.30
37560;DHT22;23398;50.928;7.084;2023-12-20T03:37:35;10.40;92.30
37560;DHT22;23398;50.928;7.084;2023-12-20T03:40:01;10.40;92.20
37560;DHT22;23398;50.928;7.084;2023-12-20T03:42:27;10.40;92.20
37560;DHT22;23398;50.928;7.084;2023-12-20T03:44:52;10.50;92.20
37560;DHT22;23398;50.928;7.084;2023-12-20T03:47:18;10.50;92.10
37560;DHT22;23398;50.928;7.084;2023-12-20T03:49:43;10.50;91.90
37560;DHT22;23398;50.928;7.084;2023-12-20T03:52:09;10.50;91.80
37560;DHT22;23398;50.928;7.084;2023-12-20T03:54:37;10.50;91.70
37560;DHT22;23398;50.928;7.084;2023-12-20T03:57:03;10.50;91.60
37560;DHT22;23398;50.928;7.084;2023-12-20T03:59:29;10.50;91.50
37560;DHT22;23398;50.928;7.084;2023-12-20T04:01:54;10.60;91.60
37560;DHT22;23398;50.928;7.084;2023-12-20T04:04:20;10.60;91.60
37560;DHT22;23398;50.928;7.084;2023-12-20T04:06:45;10.50;91.80
37560;DHT22;23398;50.928;7.084;2023-12-20T04:09:11;10.60;91.50
37560;DHT22;23398;50.928;7.084;2023-12-20T04:11:37;10.60;91.30
37560;DHT22;23398;50.928;7.084;2023-12-20T04:14:03;10.60;91.00
37560;DHT22;23398;50.928;7.084;2023-12-20T04:16:32;10.60;90.80
37560;DHT22;23398;50.928;7.084;2023-12-20T04:18:58;10.60;90.70
37560;DHT22;23398;50.928;7.084;2023-12-20T04:21:23;10.60;90.70
37560;DHT22;23398;50.928;7.084;2023-12-20T04:23:49;10.50;90.70
37560;DHT22;23398;50.928;7.084;2023-12-20T04:26:14;10.50;90.80
37560;DHT22;23398;50.928;7.084;2023-12-20T04:28:40;10.60;90.90
37560;DHT22;23398;50.928;7.084;2023-12-20T04:31:05;10.50;91.00
37560;DHT22;23398;50.928;7.084;2023-12-20T04:33:31;10.50;91.10
37560;DHT22;23398;50.928;7.084;2023-12-20T04:35:56;10.50;91.20
37560;DHT22;23398;50.928;7.084;2023-12-20T04:38:23;10.50;91.20
37560;DHT22;23398;50.928;7.084;2023-12-20T04:40:48;10.50;91.20
37560;DHT22;23398;50.928;7.084;2023-12-20T04:43:14;10.50;91.20
37560;DHT22;23398;50.928;7.084;2023-12-20T04:45:39;10.50;91.30
37560;DHT22;23398;50.928;7.084;2023-12-20T04:48:05;10.50;91.30
37560;DHT22;23398;50.928;7.084;2023-12-20T04:50:31;10.50;91.30
37560;DHT22;23398;50.928;7.084;2023-12-20T04:52:56;10.60;91.30
37560;DHT22;23398;50.928;7.084;2023-12-20T04:55:22;10.60;91.10
37560;DHT22;23398;50.928;7.084;2023-12-20T04:57:47;10.60;91.00
37560;DHT22;23398;50.928;7.084;2023-12-20T05:00:13;10.60;90.80
37560;DHT22;23398;50.928;7.084;2023-12-20T05:02:41;10.60;90.70
37560;DHT22;23398;50.928;7.084;2023-12-20T05:05:07;10.60;90.50
37560;DHT22;23398;50.928;7.084;2023-12-20T05:07:32;10.60;90.40
37560;DHT22;23398;50.928;7.084;2023-12-20T05:09:58;10.60;90.30
37560;DHT22;23398;50.928;7.084;2023-12-20T05:12:24;10.50;90.40
37560;DHT22;23398;50.928;7.084;2023-12-20T05:14:50;10.60;90.60
37560;DHT22;23398;50.928;7.084;2023-12-20T05:17:16;10.50;90.60
37560;DHT22;23398;50.928;7.084;2023-12-20T05:19:42;10.50;90.50
37560;DHT22;23398;50.928;7.084;2023-12-20T05:22:07;10.50;90.40
37560;DHT22;23398;50.928;7.084;2023-12-20T05:24:33;10.50;90.30
37560;DHT22;23398;50.928;7.084;2023-12-20T05:26:58;10.50;90.20
37560;DHT22;23398;50.928;7.084;2023-12-20T05:29:24;10.50;90.00
37560;DHT22;23398;50.928;7.084;2023-12-20T05:31:50;10.50;89.90
37560;DHT22;23398;50.928;7.084;2023-12-20T05:34:15;10.50;90.00
37560;DHT22;23398;50.928;7.084;2023-12-20T05:36:41;10.40;90.10
37560;DHT22;23398;50.928;7.084;2023-12-20T05:39:06;10.40;90.20
37560;DHT22;23398;50.928;7.084;2023-12-20T05:41:33;10.40;90.30
37560;DHT22;23398;50.928;7.084;2023-12-20T05:43:59;10.40;90.30
37560;DHT22;23398;50.928;7.084;2023-12-20T05:46:25;10.50;90.40
37560;DHT22;23398;50.928;7.084;2023-12-20T05:48:50;10.50;90.40
37560;DHT22;23398;50.928;7.084;2023-12-20T05:51:17;10.50;90.40
37560;DHT22;23398;50.928;7.084;2023-12-20T05:53:44;10.50;90.40
37560;DHT22;23398;50.928;7.084;2023-12-20T05:56:09;10.50;90.30
37560;DHT22;23398;50.928;7.084;2023-12-20T05:58:35;10.50;90.20
37560;DHT22;23398;50.928;7.084;2023-12-20T06:01:03;10.50;90.20
37560;DHT22;23398;50.928;7.084;2023-12-20T06:03:29;10.50;90.00
37560;DHT22;23398;50.928;7.084;2023-12-20T06:05:54;10.60;90.00
37560;DHT22;23398;50.928;7.084;2023-12-20T06:08:20;10.50;90.00
37560;DHT22;23398;50.928;7.084;2023-12-20T06:10:45;10.50;90.00
37560;DHT22;23398;50.928;7.084;2023-12-20T06:13:11;10.50;89.90
37560;DHT22;23398;50.928;7.084;2023-12-20T06:15:38;10.60;90.00
37560;DHT22;23398;50.928;7.084;2023-12-20T06:18:04;10.60;90.00
37560;DHT22;23398;50.928;7.084;2023-12-20T06:20:29;10.60;89.90
37560;DHT22;23398;50.928;7.084;2023-12-20T06:22:55;10.60;89.90
37560;DHT22;23398;50.928;7.084;2023-12-20T06:25:20;11.10;90.00
37560;DHT22;23398;50.928;7.084;2023-12-20T06:27:46;10.60;89.60
37560;DHT22;23398;50.928;7.084;2023-12-20T06:30:12;10.60;89.30
37560;DHT22;23398;50.928;7.084;2023-12-20T06:32:38;10.60;89.20
37560;DHT22;23398;50.928;7.084;2023-12-20T06:35:05;10.60;89.10
37560;DHT22;23398;50.928;7.084;2023-12-20T06:37:30;10.60;89.30
37560;DHT22;23398;50.928;7.084;2023-12-20T06:39:56;10.60;89.30
37560;DHT22;23398;50.928;7.084;2023-12-20T06:42:22;10.60;89.30
37560;DHT22;23398;50.928;7.084;2023-12-20T06:44:48;10.60;89.30
37560;DHT22;23398;50.928;7.084;2023-12-20T06:47:13;10.60;89.10
37560;DHT22;23398;50.928;7.084;2023-12-20T06:49:40;10.60;89.20
37560;DHT22;23398;50.928;7.084;2023-12-20T06:52:06;10.60;89.20
37560;DHT22;23398;50.928;7.084;2023-12-20T06:54:31;10.60;89.20
37560;DHT22;23398;50.928;7.084;2023-12-20T06:56:59;10.60;89.30
37560;DHT22;23398;50.928;7.084;2023-12-20T06:59:25;10.60;89.30
37560;DHT22;23398;50.928;7.084;2023-12-20T07:01:51;10.60;89.30
37560;DHT22;23398;50.928;7.084;2023-12-20T07:04:17;10.60;89.20
37560;DHT22;23398;50.928;7.084;2023-12-20T07:06:48;10.60;89.10
37560;DHT22;23398;50.928;7.084;2023-12-20T07:09:14;10.60;89.20
37560;DHT22;23398;50.928;7.084;2023-12-20T07:11:39;10.60;89.30
37560;DHT22;23398;50.928;7.084;2023-12-20T07:14:05;10.60;89.20
37560;DHT22;23398;50.928;7.084;2023-12-20T07:16:31;10.60;89.00
37560;DHT22;23398;50.928;7.084;2023-12-20T07:18:57;10.60;89.00
37560;DHT22;23398;50.928;7.084;2023-12-20T07:21:23;10.60;88.90
37560;DHT22;23398;50.928;7.084;2023-12-20T07:23:48;10.60;88.60
37560;DHT22;23398;50.928;7.084;2023-12-20T07:26:15;10.70;88.70
37560;DHT22;23398;50.928;7.084;2023-12-20T07:28:40;10.60;88.30
37560;DHT22;23398;50.928;7.084;2023-12-20T07:31:06;10.60;89.00
37560;DHT22;23398;50.928;7.084;2023-12-20T07:33:32;10.70;88.10
37560;DHT22;23398;50.928;7.084;2023-12-20T07:35:58;10.70;88.00
37560;DHT22;23398;50.928;7.084;2023-12-20T07:38:24;10.70;87.90
37560;DHT22;23398;50.928;7.084;2023-12-20T07:40:50;10.70;87.80
37560;DHT22;23398;50.928;7.084;2023-12-20T07:43:15;10.70;87.70
37560;DHT22;23398;50.928;7.084;2023-12-20T07:45:41;10.70;87.40
37560;DHT22;23398;50.928;7.084;2023-12-20T07:48:07;10.70;87.30
37560;DHT22;23398;50.928;7.084;2023-12-20T07:50:32;10.80;87.30
37560;DHT22;23398;50.928;7.084;2023-12-20T07:52:58;10.70;87.10
37560;DHT22;23398;50.928;7.084;2023-12-20T07:55:26;10.80;87.10
37560;DHT22;23398;50.928;7.084;2023-12-20T07:57:52;10.80;86.90
37560;DHT22;23398;50.928;7.084;2023-12-20T08:00:17;10.80;86.80
37560;DHT22;23398;50.928;7.084;2023-12-20T08:02:43;10.80;86.60
37560;DHT22;23398;50.928;7.084;2023-12-20T08:05:09;10.80;86.30
37560;DHT22;23398;50.928;7.084;2023-12-20T08:07:35;10.80;86.30
37560;DHT22;23398;50.928;7.084;2023-12-20T08:10:00;10.80;86.20
37560;DHT22;23398;50.928;7.084;2023-12-20T08:12:26;10.90;86.20
37560;DHT22;23398;50.928;7.084;2023-12-20T08:14:53;11.00;85.90
37560;DHT22;23398;50.928;7.084;2023-12-20T08:17:18;10.90;85.70
37560;DHT22;23398;50.928;7.084;2023-12-20T08:19:44;10.90;85.60
37560;DHT22;23398;50.928;7.084;2023-12-20T08:22:10;10.90;85.30
37560;DHT22;23398;50.928;7.084;2023-12-20T08:24:36;10.90;85.20
37560;DHT22;23398;50.928;7.084;2023-12-20T08:27:01;11.00;85.20
37560;DHT22;23398;50.928;7.084;2023-12-20T08:29:27;11.00;85.00
37560;DHT22;23398;50.928;7.084;2023-12-20T08:31:53;11.00;84.80
37560;DHT22;23398;50.928;7.084;2023-12-20T08:34:19;11.00;84.80
37560;DHT22;23398;50.928;7.084;2023-12-20T08:36:45;11.00;84.50
37560;DHT22;23398;50.928;7.084;2023-12-20T08:39:10;11.00;84.30
37560;DHT22;23398;50.928;7.084;2023-12-20T08:41:37;11.10;84.30
37560;DHT22;23398;50.928;7.084;2023-12-20T08:44:02;11.10;84.10
37560;DHT22;23398;50.928;7.084;2023-12-20T08:46:29;11.10;84.10
37560;DHT22;23398;50.928;7.084;2023-12-20T08:48:54;11.10;83.70
37560;DHT22;23398;50.928;7.084;2023-12-20T08:51:20;11.20;83.80
37560;DHT22;23398;50.928;7.084;2023-12-20T08:53:48;11.10;83.70
37560;DHT22;23398;50.928;7.084;2023-12-20T08:56:14;11.20;83.60
37560;DHT22;23398;50.928;7.084;2023-12-20T08:58:40;11.20;83.40
37560;DHT22;23398;50.928;7.084;2023-12-20T09:01:06;11.20;83.10
37560;DHT22;23398;50.928;7.084;2023-12-20T09:03:32;11.20;83.30
37560;DHT22;23398;50.928;7.084;2023-12-20T09:05:58;11.20;82.90
37560;DHT22;23398;50.928;7.084;2023-12-20T09:08:24;11.30;82.80
37560;DHT22;23398;50.928;7.084;2023-12-20T09:10:49;11.30;82.60
37560;DHT22;23398;50.928;7.084;2023-12-20T09:13:15;11.30;82.10
37560;DHT22;23398;50.928;7.084;2023-12-20T09:15:40;11.30;82.10
37560;DHT22;23398;50.928;7.084;2023-12-20T09:18:06;11.30;81.80
37560;DHT22;23398;50.928;7.084;2023-12-20T09:20:32;11.40;81.70
37560;DHT22;23398;50.928;7.084;2023-12-20T09:22:58;11.40;81.40
37560;DHT22;23398;50.928;7.084;2023-12-20T09:25:24;11.40;81.00
37560;DHT22;23398;50.928;7.084;2023-12-20T09:27:49;11.40;80.90
37560;DHT22;23398;50.928;7.084;2023-12-20T09:30:15;11.40;80.90
37560;DHT22;23398;50.928;7.084;2023-12-20T09:32:40;11.40;80.70
37560;DHT22;23398;50.928;7.084;2023-12-20T09:35:06;11.40;80.90
37560;DHT22;23398;50.928;7.084;2023-12-20T09:37:33;11.40;80.90
37560;DHT22;23398;50.928;7.084;2023-12-20T09:39:59;11.40;80.80
37560;DHT22;23398;50.928;7.084;2023-12-20T09:42:33;11.40;80.80
37560;DHT22;23398;50.928;7.084;2023-12-20T09:45:02;11.40;80.50
37560;DHT22;23398;50.928;7.084;2023-12-20T09:47:28;11.40;80.40
37560;DHT22;23398;50.928;7.084;2023-12-20T09:49:54;11.50;80.30
37560;DHT22;23398;50.928;7.084;2023-12-20T09:52:22;11.50;80.30
37560;DHT22;23398;50.928;7.084;2023-12-20T09:54:49;11.50;80.30
37560;DHT22;23398;50.928;7.084;2023-12-20T09:57:18;11.50;80.40
37560;DHT22;23398;50.928;7.084;2023-12-20T09:59:43;11.50;80.40
37560;DHT22;23398;50.928;7.084;2023-12-20T10:02:13;11.50;80.60
37560;DHT22;23398;50.928;7.084;2023-12-20T10:04:48;11.60;80.30
37560;DHT22;23398;50.928;7.084;2023-12-20T10:07:13;11.60;80.20
37560;DHT22;23398;50.928;7.084;2023-12-20T10:09:39;11.60;80.20
37560;DHT22;23398;50.928;7.084;2023-12-20T10:12:05;11.70;80.10
37560;DHT22;23398;50.928;7.084;2023-12-20T10:14:32;11.70;79.80
37560;DHT22;23398;50.928;7.084;2023-12-20T10:17:05;11.70;79.50
37560;DHT22;23398;50.928;7.084;2023-12-20T10:19:32;11.70;79.20
37560;DHT22;23398;50.928;7.084;2023-12-20T10:21:59;11.70;79.20
37560;DHT22;23398;50.928;7.084;2023-12-20T10:24:25;11.80;79.10
37560;DHT22;23398;50.928;7.084;2023-12-20T10:27:02;11.70;79.00
37560;DHT22;23398;50.928;7.084;2023-12-20T10:29:37;11.80;79.10
37560;DHT22;23398;50.928;7.084;2023-12-20T10:32:23;11.80;78.90
37560;DHT22;23398;50.928;7.084;2023-12-20T10:34:53;11.80;78.40
37560;DHT22;23398;50.928;7.084;2023-12-20T10:37:20;11.80;78.70
37560;DHT22;23398;50.928;7.084;2023-12-20T10:39:53;11.80;78.60
37560;DHT22;23398;50.928;7.084;2023-12-20T10:42:25;11.80;78.60
37560;DHT22;23398;50.928;7.084;2023-12-20T10:44:51;11.90;78.70
37560;DHT22;23398;50.928;7.084;2023-12-20T10:47:19;11.90;78.80
37560;DHT22;23398;50.928;7.084;2023-12-20T10:49:46;11.90;78.50
37560;DHT22;23398;50.928;7.084;2023-12-20T10:52:12;11.90;78.50
37560;DHT22;23398;50.928;7.084;2023-12-20T10:54:41;11.90;78.50
37560;DHT22;23398;50.928;7.084;2023-12-20T10:57:07;12.00;78.20
37560;DHT22;23398;50.928;7.084;2023-12-20T10:59:39;12.00;78.00
37560;DHT22;23398;50.928;7.084;2023-12-20T11:02:06;12.00;77.80
37560;DHT22;23398;50.928;7.084;2023-12-20T11:04:55;12.00;77.90
37560;DHT22;23398;50.928;7.084;2023-12-20T11:07:36;12.00;77.30
37560;DHT22;23398;50.928;7.084;2023-12-20T11:10:24;12.10;77.50
37560;DHT22;23398;50.928;7.084;2023-12-20T11:13:08;12.10;77.10
37560;DHT22;23398;50.928;7.084;2023-12-20T11:15:36;12.10;77.10
37560;DHT22;23398;50.928;7.084;2023-12-20T11:18:04;12.00;77.20
37560;DHT22;23398;50.928;7.084;2023-12-20T11:20:41;12.10;77.20
37560;DHT22;23398;50.928;7.084;2023-12-20T11:23:08;12.10;76.70
37560;DHT22;23398;50.928;7.084;2023-12-20T11:25:53;12.00;76.90
37560;DHT22;23398;50.928;7.084;2023-12-20T11:28:25;12.10;76.60
37560;DHT22;23398;50.928;7.084;2023-12-20T11:30:56;12.10;76.70
37560;DHT22;23398;50.928;7.084;2023-12-20T11:33:26;12.10;76.60
37560;DHT22;23398;50.928;7.084;2023-12-20T11:35:52;12.10;76.50
37560;DHT22;23398;50.928;7.084;2023-12-20T11:38:20;12.10;76.40
37560;DHT22;23398;50.928;7.084;2023-12-20T11:40:48;12.10;76.60
37560;DHT22;23398;50.928;7.084;2023-12-20T11:43:30;12.10;76.50
37560;DHT22;23398;50.928;7.084;2023-12-20T11:46:05;12.10;76.60
37560;DHT22;23398;50.928;7.084;2023-12-20T11:48:32;12.10;76.60
37560;DHT22;23398;50.928;7.084;2023-12-20T11:50:58;12.10;76.70
37560;DHT22;23398;50.928;7.084;2023-12-20T11:53:23;12.10;76.80
37560;DHT22;23398;50.928;7.084;2023-12-20T11:55:49;12.10;76.80
37560;DHT22;23398;50.928;7.084;2023-12-20T11:58:15;12.10;76.50
37560;DHT22;23398;50.928;7.084;2023-12-20T12:00:42;12.10;76.60
37560;DHT22;23398;50.928;7.084;2023-12-20T12:03:09;12.20;76.60
37560;DHT22;23398;50.928;7.084;2023-12-20T12:05:34;12.10;76.30
37560;DHT22;23398;50.928;7.084;2023-12-20T12:08:01;12.20;76.40
37560;DHT22;23398;50.928;7.084;2023-12-20T12:10:28;12.20;76.50
37560;DHT22;23398;50.928;7.084;2023-12-20T12:12:54;12.20;76.40
37560;DHT22;23398;50.928;7.084;2023-12-20T12:15:19;12.20;76.40
37560;DHT22;23398;50.928;7.084;2023-12-20T12:17:56;12.20;76.20
37560;DHT22;23398;50.928;7.084;2023-12-20T12:20:22;12.40;76.10
37560;DHT22;23398;50.928;7.084;2023-12-20T12:23:02;12.20;76.10
37560;DHT22;23398;50.928;7.084;2023-12-20T12:25:34;12.20;75.90
37560;DHT22;23398;50.928;7.084;2023-12-20T12:28:02;12.30;76.10
37560;DHT22;23398;50.928;7.084;2023-12-20T12:30:27;12.20;76.20
37560;DHT22;23398;50.928;7.084;2023-12-20T12:32:53;12.30;76.20
37560;DHT22;23398;50.928;7.084;2023-12-20T12:35:20;12.30;76.00
37560;DHT22;23398;50.928;7.084;2023-12-20T12:37:46;12.30;75.80
37560;DHT22;23398;50.928;7.084;2023-12-20T12:40:16;12.30;75.80
37560;DHT22;23398;50.928;7.084;2023-12-20T12:42:43;12.20;75.70
37560;DHT22;23398;50.928;7.084;2023-12-20T12:45:09;12.20;75.70
37560;DHT22;23398;50.928;7.084;2023-12-20T12:47:35;12.30;76.00
37560;DHT22;23398;50.928;7.084;2023-12-20T12:50:01;12.20;76.10
37560;DHT22;23398;50.928;7.084;2023-12-20T12:52:27;12.20;76.00
37560;DHT22;23398;50.928;7.084;2023-12-20T12:54:53;12.20;76.10
37560;DHT22;23398;50.928;7.084;2023-12-20T12:57:19;12.20;76.20
37560;DHT22;23398;50.928;7.084;2023-12-20T12:59:45;12.20;76.30
37560;DHT22;23398;50.928;7.084;2023-12-20T13:02:13;12.20;76.30
37560;DHT22;23398;50.928;7.084;2023-12-20T13:04:40;12.20;76.20
37560;DHT22;23398;50.928;7.084;2023-12-20T13:07:07;12.20;76.40
37560;DHT22;23398;50.928;7.084;2023-12-20T13:09:32;12.20;76.40
37560;DHT22;23398;50.928;7.084;2023-12-20T13:11:58;12.20;76.70
37560;DHT22;23398;50.928;7.084;2023-12-20T13:14:24;13.10;78.20
37560;DHT22;23398;50.928;7.084;2023-12-20T13:16:50;12.20;77.50
37560;DHT22;23398;50.928;7.084;2023-12-20T13:19:16;12.20;77.60
37560;DHT22;23398;50.928;7.084;2023-12-20T13:21:41;12.20;77.90
37560;DHT22;23398;50.928;7.084;2023-12-20T13:24:07;12.20;78.00
37560;DHT22;23398;50.928;7.084;2023-12-20T13:26:32;12.10;77.90
37560;DHT22;23398;50.928;7.084;2023-12-20T13:28:58;12.20;78.10
37560;DHT22;23398;50.928;7.084;2023-12-20T13:31:24;12.20;78.40
37560;DHT22;23398;50.928;7.084;2023-12-20T13:33:49;12.20;78.60
37560;DHT22;23398;50.928;7.084;2023-12-20T13:36:15;12.30;79.10
37560;DHT22;23398;50.928;7.084;2023-12-20T13:38:40;12.30;79.30
37560;DHT22;23398;50.928;7.084;2023-12-20T13:41:06;12.30;79.10
37560;DHT22;23398;50.928;7.084;2023-12-20T13:43:32;12.30;79.50
37560;DHT22;23398;50.928;7.084;2023-12-20T13:45:58;12.40;78.60
37560;DHT22;23398;50.928;7.084;2023-12-20T13:48:24;12.40;78.50
37560;DHT22;23398;50.928;7.084;2023-12-20T13:50:50;12.40;78.40
37560;DHT22;23398;50.928;7.084;2023-12-20T13:53:16;12.40;78.20
37560;DHT22;23398;50.928;7.084;2023-12-20T13:55:42;12.40;78.20
37560;DHT22;23398;50.928;7.084;2023-12-20T13:58:07;12.40;78.20
37560;DHT22;23398;50.928;7.084;2023-12-20T14:00:35;12.40;78.10
37560;DHT22;23398;50.928;7.084;2023-12-20T14:03:02;12.40;78.00
37560;DHT22;23398;50.928;7.084;2023-12-20T14:05:28;12.50;78.00
37560;DHT22;23398;50.928;7.084;2023-12-20T14:07:54;12.50;77.80
37560;DHT22;23398;50.928;7.084;2023-12-20T14:10:19;12.50;77.60
37560;DHT22;23398;50.928;7.084;2023-12-20T14:12:45;12.50;77.60
37560;DHT22;23398;50.928;7.084;2023-12-20T14:15:11;12.40;77.70
37560;DHT22;23398;50.928;7.084;2023-12-20T14:17:39;12.40;77.60
37560;DHT22;23398;50.928;7.084;2023-12-20T14:20:07;12.40;77.50
37560;DHT22;23398;50.928;7.084;2023-12-20T14:22:34;12.40;77.00
37560;DHT22;23398;50.928;7.084;2023-12-20T14:25:00;12.40;77.70
37560;DHT22;23398;50.928;7.084;2023-12-20T14:27:26;12.40;77.70
37560;DHT22;23398;50.928;7.084;2023-12-20T14:29:54;12.40;77.80
37560;DHT22;23398;50.928;7.084;2023-12-20T14:32:20;12.40;77.80
37560;DHT22;23398;50.928;7.084;2023-12-20T14:34:45;12.40;77.80
37560;DHT22;23398;50.928;7.084;2023-12-20T14:37:11;12.40;77.90
37560;DHT22;23398;50.928;7.084;2023-12-20T14:39:37;12.40;78.00
37560;DHT22;23398;50.928;7.084;2023-12-20T14:42:09;12.40;77.90
37560;DHT22;23398;50.928;7.084;2023-12-20T14:44:39;12.40;77.90
37560;DHT22;23398;50.928;7.084;2023-12-20T14:47:06;12.40;77.90
37560;DHT22;23398;50.928;7.084;2023-12-20T14:49:31;12.40;77.90
37560;DHT22;23398;50.928;7.084;2023-12-20T14:51:57;12.40;78.00
37560;DHT22;23398;50.928;7.084;2023-12-20T14:54:23;12.40;78.00
37560;DHT22;23398;50.928;7.084;2023-12-20T14:56:49;12.40;78.10
37560;DHT22;23398;50.928;7.084;2023-12-20T14:59:14;12.10;77.70
37560;DHT22;23398;50.928;7.084;2023-12-20T15:01:40;12.40;78.10
37560;DHT22;23398;50.928;7.084;2023-12-20T15:04:06;12.40;78.10
37560;DHT22;23398;50.928;7.084;2023-12-20T15:06:32;12.40;78.00
37560;DHT22;23398;50.928;7.084;2023-12-20T15:08:59;12.40;78.00
37560;DHT22;23398;50.928;7.084;2023-12-20T15:11:25;12.40;78.00
37560;DHT22;23398;50.928;7.084;2023-12-20T15:13:51;12.40;78.00
37560;DHT22;23398;50.928;7.084;2023-12-20T15:16:22;12.40;78.00
37560;DHT22;23398;50.928;7.084;2023-12-20T15:18:47;12.40;77.90
37560;DHT22;23398;50.928;7.084;2023-12-20T15:21:14;12.40;78.00
37560;DHT22;23398;50.928;7.084;2023-12-20T15:23:39;12.40;77.90
37560;DHT22;23398;50.928;7.084;2023-12-20T15:26:09;12.40;77.90